Sedalia, NC (27342)

7:52 PM EDT on March 26, 2017 (GMT -0400)
Whitsett NC | | Change Station

Elev 748 ft 36.08 °N, 79.56 °W | Updated 15 seconds ago

Overcast
Overcast
63.0 °F
Feels Like 63.0 °F
N
0.0
Wind Variable Wind from NNE
Gusts 0.0 mph

Today
High -- | Low -- °F
--% Chance of Precip.
Yesterday
High -- | Low -- °F
Precip. -- in
Pressure 30.11 in
Visibility 10.0 miles
Clouds Overcast 6000 ft
Dew Point 61 °F
Humidity 92%
Rainfall 0.00 in
Snow Depth Not available.
7:13 AM 7:35 PM
Waning Crescent, 2% visible
METAR KBUY 262254Z AUTO 19006KT 10SM OVC060 22/10 A3012 RMK AO2 RAB06E17 SLP196 P0000 T02220100 TSNO
Pressure 30.11 in
Visibility 10.0 miles
Clouds Overcast 6000 ft
Dew Point 61 °F
Humidity 92%
Rainfall 0.00 in
Snow Depth Not available.
7:13 AM 7:35 PM
Waning Crescent, 2% visible
METAR KBUY 262254Z AUTO 19006KT 10SM OVC060 22/10 A3012 RMK AO2 RAB06E17 SLP196 P0000 T02220100 TSNO

Get Severe Weather Alerts

Thanks for signing up!

Be on the lookout for a verification email in your inbox.

You'll start receiving the daily forecast at 8 AM.

×

10-Day Weather Forecast

Almanac

Astronomy

Mar. 26, 2017 Rise Set
Actual Time
Civil Twilight
Nautical Twilight
Astronomical Twilight
Moon
Length of Visible Light
Length of Day
Tomorrow will be .
, % of the Moon is Illuminated

Today's Extremes

State Highs State Lows

Community

WunderPhotos

Upload Photos

1,962,540 photos uploaded!

WunderBlog® & News

Nearby

Air Quality

  Air Quality AQ Index Pollutant
Not available.

Snow Depth

Station Depth Elevation

Earthquake Activity

City Distance Mag. Time & Date
Minimum magnitude displayed is 2.5.

Earthquake Activity

City Distance Mag. Time & Date
Minimum magnitude displayed is 2.5.

Coastal Water Temperatures

Place Temperature

Stations

Nearby Weather Stations

Station Location Temp. Windchill Dew Point Humidity Wind Precip. Elev Updated Type
                   

Watches & Warnings

There are currently no watches in effect.